sensor_id;sensor_type;location;lat;lon;timestamp;temperature;humidity
70851;DHT22;58475;49.662;9.636;2023-07-13T00:01:44;20.99;57.74
70851;DHT22;58475;49.662;9.636;2023-07-13T00:04:11;21.04;56.61
70851;DHT22;58475;49.662;9.636;2023-07-13T00:06:37;21.03;56.54
70851;DHT22;58475;49.662;9.636;2023-07-13T00:09:02;20.93;57.15
70851;DHT22;58475;49.662;9.636;2023-07-13T00:11:28;20.87;58.53
70851;DHT22;58475;49.662;9.636;2023-07-13T00:13:53;20.83;57.46
70851;DHT22;58475;49.662;9.636;2023-07-13T00:16:19;20.90;57.90
70851;DHT22;58475;49.662;9.636;2023-07-13T00:18:45;20.61;60.16
70851;DHT22;58475;49.662;9.636;2023-07-13T00:21:12;20.45;60.71
70851;DHT22;58475;49.662;9.636;2023-07-13T00:23:40;20.20;60.35
70851;DHT22;58475;49.662;9.636;2023-07-13T00:26:07;19.98;60.92
70851;DHT22;58475;49.662;9.636;2023-07-13T00:28:33;20.00;61.12
70851;DHT22;58475;49.662;9.636;2023-07-13T00:30:59;19.75;62.51
70851;DHT22;58475;49.662;9.636;2023-07-13T00:33:25;19.95;62.17
70851;DHT22;58475;49.662;9.636;2023-07-13T00:35:50;19.97;61.50
70851;DHT22;58475;49.662;9.636;2023-07-13T00:38:16;19.93;61.36
70851;DHT22;58475;49.662;9.636;2023-07-13T00:40:42;19.91;60.78
70851;DHT22;58475;49.662;9.636;2023-07-13T00:43:18;19.83;61.56
70851;DHT22;58475;49.662;9.636;2023-07-13T00:48:15;19.73;61.99
70851;DHT22;58475;49.662;9.636;2023-07-13T00:50:44;19.62;62.46
70851;DHT22;58475;49.662;9.636;2023-07-13T00:53:12;19.64;64.99
70851;DHT22;58475;49.662;9.636;2023-07-13T00:55:39;19.64;62.86
70851;DHT22;58475;49.662;9.636;2023-07-13T00:58:05;19.43;64.79
70851;DHT22;58475;49.662;9.636;2023-07-13T01:00:34;19.39;65.97
70851;DHT22;58475;49.662;9.636;2023-07-13T01:03:01;19.19;64.93
70851;DHT22;58475;49.662;9.636;2023-07-13T01:05:30;19.05;66.57
70851;DHT22;58475;49.662;9.636;2023-07-13T01:07:57;18.74;68.06
70851;DHT22;58475;49.662;9.636;2023-07-13T01:10:24;18.83;67.70
70851;DHT22;58475;49.662;9.636;2023-07-13T01:12:51;18.71;69.27
70851;DHT22;58475;49.662;9.636;2023-07-13T01:15:38;18.32;68.91
70851;DHT22;58475;49.662;9.636;2023-07-13T01:18:06;18.37;69.77
70851;DHT22;58475;49.662;9.636;2023-07-13T01:20:32;18.26;70.23
70851;DHT22;58475;49.662;9.636;2023-07-13T01:23:06;18.06;72.09
70851;DHT22;58475;49.662;9.636;2023-07-13T01:25:32;17.97;72.30
70851;DHT22;58475;49.662;9.636;2023-07-13T01:27:57;18.05;72.41
70851;DHT22;58475;49.662;9.636;2023-07-13T01:30:23;17.69;70.13
70851;DHT22;58475;49.662;9.636;2023-07-13T01:32:48;17.87;67.99
70851;DHT22;58475;49.662;9.636;2023-07-13T01:35:14;18.06;67.48
70851;DHT22;58475;49.662;9.636;2023-07-13T01:37:39;18.12;67.75
70851;DHT22;58475;49.662;9.636;2023-07-13T01:40:05;18.37;67.06
70851;DHT22;58475;49.662;9.636;2023-07-13T01:42:31;18.29;67.39
70851;DHT22;58475;49.662;9.636;2023-07-13T01:44:56;18.40;66.48
70851;DHT22;58475;49.662;9.636;2023-07-13T01:47:22;18.44;65.72
70851;DHT22;58475;49.662;9.636;2023-07-13T01:49:48;18.37;66.42
70851;DHT22;58475;49.662;9.636;2023-07-13T01:52:15;18.44;66.02
70851;DHT22;58475;49.662;9.636;2023-07-13T01:54:40;18.44;66.36
70851;DHT22;58475;49.662;9.636;2023-07-13T01:57:05;18.38;67.32
70851;DHT22;58475;49.662;9.636;2023-07-13T01:59:31;18.16;69.05
70851;DHT22;58475;49.662;9.636;2023-07-13T02:01:58;17.96;69.85
70851;DHT22;58475;49.662;9.636;2023-07-13T02:04:23;17.72;69.73
70851;DHT22;58475;49.662;9.636;2023-07-13T02:06:51;17.68;69.23
70851;DHT22;58475;49.662;9.636;2023-07-13T02:09:16;17.86;67.91
70851;DHT22;58475;49.662;9.636;2023-07-13T02:11:41;17.83;68.00
70851;DHT22;58475;49.662;9.636;2023-07-13T02:14:07;17.79;68.71
70851;DHT22;58475;49.662;9.636;2023-07-13T02:16:32;17.58;68.65
70851;DHT22;58475;49.662;9.636;2023-07-13T02:18:57;17.66;68.08
70851;DHT22;58475;49.662;9.636;2023-07-13T02:21:23;17.66;67.37
70851;DHT22;58475;49.662;9.636;2023-07-13T02:23:50;17.74;66.92
70851;DHT22;58475;49.662;9.636;2023-07-13T02:26:16;17.66;67.44
70851;DHT22;58475;49.662;9.636;2023-07-13T02:28:41;17.69;67.65
70851;DHT22;58475;49.662;9.636;2023-07-13T02:31:14;17.76;66.89
70851;DHT22;58475;49.662;9.636;2023-07-13T02:33:39;17.78;67.19
70851;DHT22;58475;49.662;9.636;2023-07-13T02:36:05;17.75;67.05
70851;DHT22;58475;49.662;9.636;2023-07-13T02:38:32;17.86;66.47
70851;DHT22;58475;49.662;9.636;2023-07-13T02:41:05;18.05;65.34
70851;DHT22;58475;49.662;9.636;2023-07-13T02:43:31;17.97;65.99
70851;DHT22;58475;49.662;9.636;2023-07-13T02:45:56;17.87;66.26
70851;DHT22;58475;49.662;9.636;2023-07-13T02:48:25;17.75;67.26
70851;DHT22;58475;49.662;9.636;2023-07-13T02:50:51;17.78;67.47
70851;DHT22;58475;49.662;9.636;2023-07-13T02:53:16;17.62;68.92
70851;DHT22;58475;49.662;9.636;2023-07-13T02:55:41;17.49;69.50
70851;DHT22;58475;49.662;9.636;2023-07-13T02:58:12;17.51;70.90
70851;DHT22;58475;49.662;9.636;2023-07-13T03:00:43;17.34;71.76
70851;DHT22;58475;49.662;9.636;2023-07-13T03:03:08;16.84;74.04
70851;DHT22;58475;49.662;9.636;2023-07-13T03:05:33;16.75;74.37
70851;DHT22;58475;49.662;9.636;2023-07-13T03:07:59;16.57;74.86
70851;DHT22;58475;49.662;9.636;2023-07-13T03:10:24;16.66;74.79
70851;DHT22;58475;49.662;9.636;2023-07-13T03:12:50;16.70;74.99
70851;DHT22;58475;49.662;9.636;2023-07-13T03:15:23;16.22;76.87
70851;DHT22;58475;49.662;9.636;2023-07-13T03:17:50;16.15;77.32
70851;DHT22;58475;49.662;9.636;2023-07-13T03:20:16;16.04;77.61
70851;DHT22;58475;49.662;9.636;2023-07-13T03:22:42;15.94;77.94
70851;DHT22;58475;49.662;9.636;2023-07-13T03:25:08;15.87;77.90
70851;DHT22;58475;49.662;9.636;2023-07-13T03:27:34;15.53;79.02
70851;DHT22;58475;49.662;9.636;2023-07-13T03:30:00;15.51;79.59
70851;DHT22;58475;49.662;9.636;2023-07-13T03:32:26;15.56;79.23
70851;DHT22;58475;49.662;9.636;2023-07-13T03:34:52;15.77;78.70
70851;DHT22;58475;49.662;9.636;2023-07-13T03:37:18;15.56;78.87
70851;DHT22;58475;49.662;9.636;2023-07-13T03:39:43;15.58;78.91
70851;DHT22;58475;49.662;9.636;2023-07-13T03:42:10;15.49;79.58
70851;DHT22;58475;49.662;9.636;2023-07-13T03:44:35;15.58;79.64
70851;DHT22;58475;49.662;9.636;2023-07-13T03:47:02;15.54;80.17
70851;DHT22;58475;49.662;9.636;2023-07-13T03:49:28;15.46;80.74
70851;DHT22;58475;49.662;9.636;2023-07-13T03:51:53;15.60;80.02
70851;DHT22;58475;49.662;9.636;2023-07-13T03:54:19;15.70;79.98
70851;DHT22;58475;49.662;9.636;2023-07-13T03:56:44;15.58;78.22
70851;DHT22;58475;49.662;9.636;2023-07-13T03:59:09;15.70;78.52
70851;DHT22;58475;49.662;9.636;2023-07-13T04:01:35;15.91;78.28
70851;DHT22;58475;49.662;9.636;2023-07-13T04:04:00;15.96;77.37
70851;DHT22;58475;49.662;9.636;2023-07-13T04:06:27;15.81;78.48
70851;DHT22;58475;49.662;9.636;2023-07-13T04:08:56;15.93;78.36
70851;DHT22;58475;49.662;9.636;2023-07-13T04:11:24;16.19;77.26
70851;DHT22;58475;49.662;9.636;2023-07-13T04:13:50;16.32;77.14
70851;DHT22;58475;49.662;9.636;2023-07-13T04:16:17;16.24;75.93
70851;DHT22;58475;49.662;9.636;2023-07-13T04:18:43;16.24;76.83
70851;DHT22;58475;49.662;9.636;2023-07-13T04:21:09;16.08;77.21
70851;DHT22;58475;49.662;9.636;2023-07-13T04:23:35;16.38;77.11
70851;DHT22;58475;49.662;9.636;2023-07-13T04:26:01;16.44;76.56
70851;DHT22;58475;49.662;9.636;2023-07-13T04:28:26;16.41;75.87
70851;DHT22;58475;49.662;9.636;2023-07-13T04:30:53;16.28;76.02
70851;DHT22;58475;49.662;9.636;2023-07-13T04:33:19;16.63;76.20
70851;DHT22;58475;49.662;9.636;2023-07-13T04:35:48;16.73;75.54
70851;DHT22;58475;49.662;9.636;2023-07-13T04:38:14;16.86;75.55
70851;DHT22;58475;49.662;9.636;2023-07-13T04:40:44;16.84;74.98
70851;DHT22;58475;49.662;9.636;2023-07-13T04:43:10;16.88;74.99
70851;DHT22;58475;49.662;9.636;2023-07-13T04:45:35;17.07;74.87
70851;DHT22;58475;49.662;9.636;2023-07-13T04:48:01;17.16;74.20
70851;DHT22;58475;49.662;9.636;2023-07-13T04:50:26;17.24;73.78
70851;DHT22;58475;49.662;9.636;2023-07-13T04:52:51;17.21;73.24
70851;DHT22;58475;49.662;9.636;2023-07-13T04:55:18;17.26;72.77
70851;DHT22;58475;49.662;9.636;2023-07-13T04:57:43;16.88;74.61
70851;DHT22;58475;49.662;9.636;2023-07-13T05:00:09;16.86;75.34
70851;DHT22;58475;49.662;9.636;2023-07-13T05:02:35;17.16;74.17
70851;DHT22;58475;49.662;9.636;2023-07-13T05:05:01;16.96;77.23
70851;DHT22;58475;49.662;9.636;2023-07-13T05:07:26;16.38;77.64
70851;DHT22;58475;49.662;9.636;2023-07-13T05:09:52;16.66;76.62
70851;DHT22;58475;49.662;9.636;2023-07-13T05:12:18;16.91;77.15
70851;DHT22;58475;49.662;9.636;2023-07-13T05:14:43;16.90;76.69
70851;DHT22;58475;49.662;9.636;2023-07-13T05:17:09;17.17;76.60
70851;DHT22;58475;49.662;9.636;2023-07-13T05:19:34;17.52;77.18
70851;DHT22;58475;49.662;9.636;2023-07-13T05:22:00;17.47;77.85
70851;DHT22;58475;49.662;9.636;2023-07-13T05:24:25;17.75;76.18
70851;DHT22;58475;49.662;9.636;2023-07-13T05:26:51;17.93;75.33
70851;DHT22;58475;49.662;9.636;2023-07-13T05:29:16;17.58;76.29
70851;DHT22;58475;49.662;9.636;2023-07-13T05:31:41;17.66;75.57
70851;DHT22;58475;49.662;9.636;2023-07-13T05:34:07;17.61;76.90
70851;DHT22;58475;49.662;9.636;2023-07-13T05:36:35;17.69;75.68
70851;DHT22;58475;49.662;9.636;2023-07-13T05:39:02;17.72;75.82
70851;DHT22;58475;49.662;9.636;2023-07-13T05:41:28;17.61;76.33
70851;DHT22;58475;49.662;9.636;2023-07-13T05:43:53;17.47;76.86
70851;DHT22;58475;49.662;9.636;2023-07-13T05:46:18;17.44;76.30
70851;DHT22;58475;49.662;9.636;2023-07-13T05:48:44;17.41;76.06
70851;DHT22;58475;49.662;9.636;2023-07-13T05:51:09;17.30;77.13
70851;DHT22;58475;49.662;9.636;2023-07-13T05:53:34;17.71;77.02
70851;DHT22;58475;49.662;9.636;2023-07-13T05:56:01;18.18;75.04
70851;DHT22;58475;49.662;9.636;2023-07-13T05:58:26;18.26;73.13
70851;DHT22;58475;49.662;9.636;2023-07-13T06:01:03;17.95;73.32
70851;DHT22;58475;49.662;9.636;2023-07-13T06:03:29;18.07;73.10
70851;DHT22;58475;49.662;9.636;2023-07-13T06:05:55;18.37;73.22
70851;DHT22;58475;49.662;9.636;2023-07-13T06:08:20;18.48;73.65
70851;DHT22;58475;49.662;9.636;2023-07-13T06:10:45;18.95;73.17
70851;DHT22;58475;49.662;9.636;2023-07-13T06:13:11;19.57;71.67
70851;DHT22;58475;49.662;9.636;2023-07-13T06:15:36;19.84;70.61
70851;DHT22;58475;49.662;9.636;2023-07-13T06:18:01;20.03;70.87
70851;DHT22;58475;49.662;9.636;2023-07-13T06:20:27;20.28;70.41
70851;DHT22;58475;49.662;9.636;2023-07-13T06:22:54;19.91;71.08
70851;DHT22;58475;49.662;9.636;2023-07-13T06:25:19;19.80;71.65
70851;DHT22;58475;49.662;9.636;2023-07-13T06:27:44;19.27;71.86
70851;DHT22;58475;49.662;9.636;2023-07-13T06:30:10;19.69;72.46
70851;DHT22;58475;49.662;9.636;2023-07-13T06:32:36;20.42;71.65
70851;DHT22;58475;49.662;9.636;2023-07-13T06:35:01;20.39;68.91
70851;DHT22;58475;49.662;9.636;2023-07-13T06:37:27;20.35;67.64
70851;DHT22;58475;49.662;9.636;2023-07-13T06:39:52;20.61;69.89
70851;DHT22;58475;49.662;9.636;2023-07-13T06:42:17;20.77;65.13
70851;DHT22;58475;49.662;9.636;2023-07-13T06:44:43;20.92;67.16
70851;DHT22;58475;49.662;9.636;2023-07-13T06:47:08;21.88;65.40
70851;DHT22;58475;49.662;9.636;2023-07-13T06:49:33;22.06;62.06
70851;DHT22;58475;49.662;9.636;2023-07-13T06:51:59;22.49;61.90
70851;DHT22;58475;49.662;9.636;2023-07-13T06:54:24;23.02;59.88
70851;DHT22;58475;49.662;9.636;2023-07-13T06:56:50;23.45;59.22
70851;DHT22;58475;49.662;9.636;2023-07-13T06:59:15;23.29;55.42
70851;DHT22;58475;49.662;9.636;2023-07-13T07:01:40;23.56;56.21
70851;DHT22;58475;49.662;9.636;2023-07-13T07:04:06;23.89;54.75
70851;DHT22;58475;49.662;9.636;2023-07-13T07:06:31;24.07;54.69
70851;DHT22;58475;49.662;9.636;2023-07-13T07:08:56;24.37;52.76
70851;DHT22;58475;49.662;9.636;2023-07-13T07:11:24;24.31;52.43
70851;DHT22;58475;49.662;9.636;2023-07-13T07:13:53;23.45;52.92
70851;DHT22;58475;49.662;9.636;2023-07-13T07:16:19;23.23;51.55
70851;DHT22;58475;49.662;9.636;2023-07-13T07:18:45;23.42;52.62
70851;DHT22;58475;49.662;9.636;2023-07-13T07:21:11;24.13;53.06
70851;DHT22;58475;49.662;9.636;2023-07-13T07:23:36;23.71;50.50
70851;DHT22;58475;49.662;9.636;2023-07-13T07:26:02;24.00;51.03
70851;DHT22;58475;49.662;9.636;2023-07-13T07:28:28;23.53;51.76
70851;DHT22;58475;49.662;9.636;2023-07-13T07:30:55;24.11;51.43
70851;DHT22;58475;49.662;9.636;2023-07-13T07:33:21;24.35;50.14
70851;DHT22;58475;49.662;9.636;2023-07-13T07:35:46;24.11;49.41
70851;DHT22;58475;49.662;9.636;2023-07-13T07:38:11;24.25;48.63
70851;DHT22;58475;49.662;9.636;2023-07-13T07:40:40;23.41;49.33
70851;DHT22;58475;49.662;9.636;2023-07-13T07:43:07;23.96;48.92
70851;DHT22;58475;49.662;9.636;2023-07-13T07:45:33;24.67;49.37
70851;DHT22;58475;49.662;9.636;2023-07-13T07:47:58;24.67;49.31
70851;DHT22;58475;49.662;9.636;2023-07-13T07:50:28;24.55;48.16
70851;DHT22;58475;49.662;9.636;2023-07-13T07:52:54;24.75;48.72
70851;DHT22;58475;49.662;9.636;2023-07-13T07:55:21;25.46;47.01
70851;DHT22;58475;49.662;9.636;2023-07-13T07:57:47;25.50;47.73
70851;DHT22;58475;49.662;9.636;2023-07-13T08:00:13;25.37;46.35
70851;DHT22;58475;49.662;9.636;2023-07-13T08:02:41;24.76;46.18
70851;DHT22;58475;49.662;9.636;2023-07-13T08:05:08;25.33;46.05
70851;DHT22;58475;49.662;9.636;2023-07-13T08:07:33;25.63;44.36
70851;DHT22;58475;49.662;9.636;2023-07-13T08:09:59;25.27;45.00
70851;DHT22;58475;49.662;9.636;2023-07-13T08:12:24;25.27;45.11
70851;DHT22;58475;49.662;9.636;2023-07-13T08:14:50;25.43;45.05
70851;DHT22;58475;49.662;9.636;2023-07-13T08:17:21;25.68;46.09
70851;DHT22;58475;49.662;9.636;2023-07-13T08:19:46;25.64;45.80
70851;DHT22;58475;49.662;9.636;2023-07-13T08:22:12;25.28;44.79
70851;DHT22;58475;49.662;9.636;2023-07-13T08:24:37;26.04;46.55
70851;DHT22;58475;49.662;9.636;2023-07-13T08:27:03;25.51;46.15
70851;DHT22;58475;49.662;9.636;2023-07-13T08:29:28;25.30;47.17
70851;DHT22;58475;49.662;9.636;2023-07-13T08:31:53;25.84;45.51
70851;DHT22;58475;49.662;9.636;2023-07-13T08:34:19;25.96;46.50
70851;DHT22;58475;49.662;9.636;2023-07-13T08:36:45;26.22;44.14
70851;DHT22;58475;49.662;9.636;2023-07-13T08:39:10;26.59;43.62
70851;DHT22;58475;49.662;9.636;2023-07-13T08:41:36;26.11;45.15
70851;DHT22;58475;49.662;9.636;2023-07-13T08:44:03;26.53;45.44
70851;DHT22;58475;49.662;9.636;2023-07-13T08:46:37;26.82;45.41
70851;DHT22;58475;49.662;9.636;2023-07-13T08:49:18;26.43;44.50
70851;DHT22;58475;49.662;9.636;2023-07-13T08:52:05;26.57;44.34
70851;DHT22;58475;49.662;9.636;2023-07-13T08:54:44;26.73;45.15
70851;DHT22;58475;49.662;9.636;2023-07-13T08:57:18;27.05;45.59
70851;DHT22;58475;49.662;9.636;2023-07-13T08:59:45;26.86;43.32
70851;DHT22;58475;49.662;9.636;2023-07-13T09:05:03;24.97;46.21
70851;DHT22;58475;49.662;9.636;2023-07-13T09:07:50;25.95;47.56
70851;DHT22;58475;49.662;9.636;2023-07-13T09:10:35;26.94;44.70
70851;DHT22;58475;49.662;9.636;2023-07-13T09:13:20;25.64;45.09
70851;DHT22;58475;49.662;9.636;2023-07-13T09:15:49;26.74;45.68
70851;DHT22;58475;49.662;9.636;2023-07-13T09:18:28;25.81;46.27
70851;DHT22;58475;49.662;9.636;2023-07-13T09:21:17;26.52;44.99
70851;DHT22;58475;49.662;9.636;2023-07-13T09:23:43;26.95;44.40
70851;DHT22;58475;49.662;9.636;2023-07-13T09:26:11;26.94;45.53
70851;DHT22;58475;49.662;9.636;2023-07-13T09:28:44;27.16;44.91
70851;DHT22;58475;49.662;9.636;2023-07-13T09:31:23;27.54;44.02
70851;DHT22;58475;49.662;9.636;2023-07-13T09:33:49;27.10;42.81
70851;DHT22;58475;49.662;9.636;2023-07-13T09:36:32;27.31;45.85
70851;DHT22;58475;49.662;9.636;2023-07-13T09:41:55;25.80;43.74
70851;DHT22;58475;49.662;9.636;2023-07-13T09:44:33;26.15;43.97
70851;DHT22;58475;49.662;9.636;2023-07-13T09:47:00;27.24;44.14
70851;DHT22;58475;49.662;9.636;2023-07-13T09:49:36;26.66;43.67
70851;DHT22;58475;49.662;9.636;2023-07-13T09:52:05;27.08;44.36
70851;DHT22;58475;49.662;9.636;2023-07-13T09:54:34;27.16;44.92
70851;DHT22;58475;49.662;9.636;2023-07-13T09:57:01;27.00;43.89
70851;DHT22;58475;49.662;9.636;2023-07-13T09:59:33;27.10;42.76
70851;DHT22;58475;49.662;9.636;2023-07-13T10:01:58;26.05;44.17
70851;DHT22;58475;49.662;9.636;2023-07-13T10:04:32;25.17;46.04
70851;DHT22;58475;49.662;9.636;2023-07-13T10:07:06;25.20;47.23
70851;DHT22;58475;49.662;9.636;2023-07-13T10:09:32;26.05;45.74
70851;DHT22;58475;49.662;9.636;2023-07-13T10:11:57;25.95;45.02
70851;DHT22;58475;49.662;9.636;2023-07-13T10:14:23;27.31;45.46
70851;DHT22;58475;49.662;9.636;2023-07-13T10:16:55;26.94;43.34
70851;DHT22;58475;49.662;9.636;2023-07-13T10:19:25;26.77;45.19
70851;DHT22;58475;49.662;9.636;2023-07-13T10:21:57;26.45;43.51
70851;DHT22;58475;49.662;9.636;2023-07-13T10:24:26;25.98;44.00
70851;DHT22;58475;49.662;9.636;2023-07-13T10:27:01;26.33;43.73
70851;DHT22;58475;49.662;9.636;2023-07-13T10:29:34;26.59;43.70
70851;DHT22;58475;49.662;9.636;2023-07-13T10:32:01;27.79;42.20
70851;DHT22;58475;49.662;9.636;2023-07-13T10:34:26;26.97;42.34
70851;DHT22;58475;49.662;9.636;2023-07-13T10:36:52;26.74;44.49
70851;DHT22;58475;49.662;9.636;2023-07-13T10:39:27;27.45;41.96
70851;DHT22;58475;49.662;9.636;2023-07-13T10:41:58;26.24;43.20
70851;DHT22;58475;49.662;9.636;2023-07-13T10:44:28;25.68;45.05
70851;DHT22;58475;49.662;9.636;2023-07-13T10:47:02;24.99;43.49
70851;DHT22;58475;49.662;9.636;2023-07-13T10:49:31;25.09;45.22
70851;DHT22;58475;49.662;9.636;2023-07-13T10:51:56;24.92;45.64
70851;DHT22;58475;49.662;9.636;2023-07-13T10:54:28;25.30;46.35
70851;DHT22;58475;49.662;9.636;2023-07-13T10:57:16;26.47;44.80
70851;DHT22;58475;49.662;9.636;2023-07-13T10:59:46;26.18;45.47
70851;DHT22;58475;49.662;9.636;2023-07-13T11:02:27;26.11;45.55
70851;DHT22;58475;49.662;9.636;2023-07-13T11:04:55;27.01;44.68
70851;DHT22;58475;49.662;9.636;2023-07-13T11:07:27;26.55;43.19
70851;DHT22;58475;49.662;9.636;2023-07-13T11:09:56;26.05;44.29
70851;DHT22;58475;49.662;9.636;2023-07-13T11:19:54;25.51;47.65
70851;DHT22;58475;49.662;9.636;2023-07-13T11:22:53;26.15;48.09
70851;DHT22;58475;49.662;9.636;2023-07-13T11:25:33;26.64;45.27
70851;DHT22;58475;49.662;9.636;2023-07-13T11:30:43;25.82;44.67
70851;DHT22;58475;49.662;9.636;2023-07-13T11:36:10;25.60;44.07
70851;DHT22;58475;49.662;9.636;2023-07-13T11:38:42;25.57;45.41
70851;DHT22;58475;49.662;9.636;2023-07-13T11:41:20;25.64;44.89
70851;DHT22;58475;49.662;9.636;2023-07-13T11:43:51;26.04;44.88
70851;DHT22;58475;49.662;9.636;2023-07-13T11:46:22;26.69;42.47
70851;DHT22;58475;49.662;9.636;2023-07-13T11:48:48;26.15;44.02
70851;DHT22;58475;49.662;9.636;2023-07-13T11:51:20;26.53;44.56
70851;DHT22;58475;49.662;9.636;2023-07-13T11:53:48;27.39;42.97
70851;DHT22;58475;49.662;9.636;2023-07-13T11:56:14;26.86;42.27
70851;DHT22;58475;49.662;9.636;2023-07-13T11:58:40;26.70;42.66
70851;DHT22;58475;49.662;9.636;2023-07-13T12:01:16;26.59;44.46
70851;DHT22;58475;49.662;9.636;2023-07-13T12:03:43;26.04;43.93
70851;DHT22;58475;49.662;9.636;2023-07-13T12:06:32;26.33;44.80
70851;DHT22;58475;49.662;9.636;2023-07-13T12:08:59;26.11;43.84
70851;DHT22;58475;49.662;9.636;2023-07-13T12:11:26;26.22;44.41
70851;DHT22;58475;49.662;9.636;2023-07-13T12:13:52;25.91;44.34
70851;DHT22;58475;49.662;9.636;2023-07-13T12:16:29;25.46;43.68
70851;DHT22;58475;49.662;9.636;2023-07-13T12:18:59;26.02;43.67
70851;DHT22;58475;49.662;9.636;2023-07-13T12:21:33;26.67;44.70
70851;DHT22;58475;49.662;9.636;2023-07-13T12:23:59;26.87;41.85
70851;DHT22;58475;49.662;9.636;2023-07-13T12:26:27;27.00;43.54
70851;DHT22;58475;49.662;9.636;2023-07-13T12:28:54;27.28;40.94
70851;DHT22;58475;49.662;9.636;2023-07-13T12:31:34;27.58;41.16
70851;DHT22;58475;49.662;9.636;2023-07-13T12:34:03;27.38;40.98
70851;DHT22;58475;49.662;9.636;2023-07-13T12:36:34;28.06;39.57
70851;DHT22;58475;49.662;9.636;2023-07-13T12:39:15;28.18;40.84
70851;DHT22;58475;49.662;9.636;2023-07-13T12:41:41;26.64;41.37
70851;DHT22;58475;49.662;9.636;2023-07-13T12:44:28;26.46;42.67
70851;DHT22;58475;49.662;9.636;2023-07-13T12:47:05;26.66;42.17
70851;DHT22;58475;49.662;9.636;2023-07-13T12:49:44;27.38;41.81
70851;DHT22;58475;49.662;9.636;2023-07-13T12:52:16;27.56;41.56
70851;DHT22;58475;49.662;9.636;2023-07-13T12:54:42;27.27;40.92
70851;DHT22;58475;49.662;9.636;2023-07-13T12:57:13;26.67;40.84
70851;DHT22;58475;49.662;9.636;2023-07-13T12:59:41;27.04;42.53
70851;DHT22;58475;49.662;9.636;2023-07-13T13:02:33;26.57;41.20
70851;DHT22;58475;49.662;9.636;2023-07-13T13:05:01;26.86;41.53
70851;DHT22;58475;49.662;9.636;2023-07-13T13:07:28;26.98;41.05
70851;DHT22;58475;49.662;9.636;2023-07-13T13:09:55;27.10;40.38
70851;DHT22;58475;49.662;9.636;2023-07-13T13:12:20;26.93;40.41
70851;DHT22;58475;49.662;9.636;2023-07-13T13:14:45;27.35;42.25
70851;DHT22;58475;49.662;9.636;2023-07-13T13:17:22;27.08;40.95
70851;DHT22;58475;49.662;9.636;2023-07-13T13:19:52;27.27;41.73
70851;DHT22;58475;49.662;9.636;2023-07-13T13:22:21;26.57;40.55
70851;DHT22;58475;49.662;9.636;2023-07-13T13:24:46;26.77;42.27
70851;DHT22;58475;49.662;9.636;2023-07-13T13:27:17;26.09;43.04
70851;DHT22;58475;49.662;9.636;2023-07-13T13:29:43;26.31;43.19
70851;DHT22;58475;49.662;9.636;2023-07-13T13:32:12;27.10;42.60
70851;DHT22;58475;49.662;9.636;2023-07-13T13:34:37;27.23;41.01
70851;DHT22;58475;49.662;9.636;2023-07-13T13:37:03;27.25;40.05
70851;DHT22;58475;49.662;9.636;2023-07-13T13:39:36;26.87;39.13
70851;DHT22;58475;49.662;9.636;2023-07-13T13:42:02;26.63;41.92
70851;DHT22;58475;49.662;9.636;2023-07-13T13:44:27;26.53;40.89
70851;DHT22;58475;49.662;9.636;2023-07-13T13:46:54;26.29;40.46
70851;DHT22;58475;49.662;9.636;2023-07-13T13:49:25;26.56;41.67
70851;DHT22;58475;49.662;9.636;2023-07-13T13:51:53;27.10;40.71
70851;DHT22;58475;49.662;9.636;2023-07-13T13:54:20;26.93;41.32
70851;DHT22;58475;49.662;9.636;2023-07-13T13:56:49;27.81;40.94
70851;DHT22;58475;49.662;9.636;2023-07-13T13:59:14;27.54;39.76
70851;DHT22;58475;49.662;9.636;2023-07-13T14:01:42;27.03;42.11
70851;DHT22;58475;49.662;9.636;2023-07-13T14:04:20;27.05;41.87
70851;DHT22;58475;49.662;9.636;2023-07-13T14:06:45;27.15;41.27
70851;DHT22;58475;49.662;9.636;2023-07-13T14:09:14;27.14;43.43
70851;DHT22;58475;49.662;9.636;2023-07-13T14:11:40;27.16;42.74
70851;DHT22;58475;49.662;9.636;2023-07-13T14:14:20;26.69;42.43
70851;DHT22;58475;49.662;9.636;2023-07-13T14:16:48;26.49;41.58
70851;DHT22;58475;49.662;9.636;2023-07-13T14:19:19;26.83;41.92
70851;DHT22;58475;49.662;9.636;2023-07-13T14:21:44;26.69;40.60
70851;DHT22;58475;49.662;9.636;2023-07-13T14:24:10;26.80;40.02
70851;DHT22;58475;49.662;9.636;2023-07-13T14:26:37;26.39;41.05
70851;DHT22;58475;49.662;9.636;2023-07-13T14:29:08;26.39;39.52
70851;DHT22;58475;49.662;9.636;2023-07-13T14:31:35;26.28;39.17
70851;DHT22;58475;49.662;9.636;2023-07-13T14:34:01;26.40;40.64
70851;DHT22;58475;49.662;9.636;2023-07-13T14:36:27;26.39;41.14
70851;DHT22;58475;49.662;9.636;2023-07-13T14:38:54;26.63;41.11
70851;DHT22;58475;49.662;9.636;2023-07-13T14:41:20;27.44;39.55
70851;DHT22;58475;49.662;9.636;2023-07-13T14:43:46;27.01;40.24
70851;DHT22;58475;49.662;9.636;2023-07-13T14:46:28;27.12;41.67
70851;DHT22;58475;49.662;9.636;2023-07-13T14:51:25;26.70;41.49
70851;DHT22;58475;49.662;9.636;2023-07-13T14:53:50;26.52;41.85
70851;DHT22;58475;49.662;9.636;2023-07-13T14:56:16;26.56;41.00
70851;DHT22;58475;49.662;9.636;2023-07-13T14:58:42;27.70;42.30
70851;DHT22;58475;49.662;9.636;2023-07-13T15:01:13;28.21;40.04
70851;DHT22;58475;49.662;9.636;2023-07-13T15:03:44;28.45;40.63
70851;DHT22;58475;49.662;9.636;2023-07-13T15:06:11;28.48;40.46
70851;DHT22;58475;49.662;9.636;2023-07-13T15:08:37;27.49;40.03
70851;DHT22;58475;49.662;9.636;2023-07-13T15:11:03;27.89;40.26
70851;DHT22;58475;49.662;9.636;2023-07-13T15:13:30;27.83;41.03
70851;DHT22;58475;49.662;9.636;2023-07-13T15:15:55;27.32;39.12
70851;DHT22;58475;49.662;9.636;2023-07-13T15:18:23;27.66;39.69
70851;DHT22;58475;49.662;9.636;2023-07-13T15:20:51;27.38;40.25
70851;DHT22;58475;49.662;9.636;2023-07-13T15:23:18;28.02;38.94
70851;DHT22;58475;49.662;9.636;2023-07-13T15:25:44;27.93;40.83
70851;DHT22;58475;49.662;9.636;2023-07-13T15:28:10;27.16;40.67
70851;DHT22;58475;49.662;9.636;2023-07-13T15:30:45;27.44;42.40
70851;DHT22;58475;49.662;9.636;2023-07-13T15:35:43;28.24;41.28
70851;DHT22;58475;49.662;9.636;2023-07-13T15:38:23;27.85;42.92
70851;DHT22;58475;49.662;9.636;2023-07-13T15:40:49;28.39;40.90
70851;DHT22;58475;49.662;9.636;2023-07-13T15:43:19;28.07;41.35
70851;DHT22;58475;49.662;9.636;2023-07-13T15:45:45;28.24;40.88
70851;DHT22;58475;49.662;9.636;2023-07-13T15:48:25;27.81;41.54
70851;DHT22;58475;49.662;9.636;2023-07-13T15:51:00;27.10;41.85
70851;DHT22;58475;49.662;9.636;2023-07-13T15:53:32;26.42;44.23
70851;DHT22;58475;49.662;9.636;2023-07-13T15:55:58;27.05;41.70
70851;DHT22;58475;49.662;9.636;2023-07-13T15:58:24;27.04;40.69
70851;DHT22;58475;49.662;9.636;2023-07-13T16:00:50;27.00;42.47
70851;DHT22;58475;49.662;9.636;2023-07-13T16:03:19;27.34;42.27